Date,TemperatureHighF,TemperatureAvgF,TemperatureLowF,DewpointHighF,DewpointAvgF,DewpointLowF,HumidityHigh,HumidityAvg,HumidityLow,PressureMaxIn,PressureMinIn,WindSpeedMaxMPH,WindSpeedAvgMPH,GustSpeedMaxMPH,PrecipitationSumIn
2013-1-1,75.6,61.5,50.3,62.0,56.5,49.0,99,85,61,30.23,30.03,6,0,0,0.00
2013-1-2,78.2,65.0,54.4,68.0,61.0,53.0,97,88,66,30.06,29.96,4,0,0,0.00
2013-1-3,63.6,60.0,51.9,61.0,58.8,51.0,97,95,85,30.22,30.04,7,2,0,0.08
2013-1-4,60.2,53.9,51.2,57.0,52.3,49.0,98,94,89,30.30,30.19,7,1,0,0.01
2013-1-5,62.6,52.2,43.8,56.0,49.9,43.0,97,92,77,30.32,30.23,5,0,0,0.00
2013-1-6,70.6,60.8,56.0,65.0,58.3,54.0,98,92,80,30.23,30.08,9,1,0,0.02
2013-1-7,67.1,59.7,52.3,62.0,54.6,48.0,97,84,61,30.25,30.14,11,2,0,0.00
2013-1-8,74.1,67.6,63.7,70.0,65.6,62.0,97,93,85,30.25,30.16,6,1,0,0.06
2013-1-9,78.1,69.1,62.8,72.0,67.3,62.0,99,94,81,30.32,30.21,5,0,0,0.01
2013-1-10,78.0,67.6,61.4,71.0,65.5,61.0,99,93,75,30.33,30.27,6,0,0,0.00
2013-1-11,82.0,69.4,58.8,70.0,64.2,58.0,99,85,51,30.27,30.16,8,1,0,0.00
2013-1-12,79.5,67.7,57.8,69.0,63.2,57.0,99,87,54,30.20,30.10,7,0,0,0.01
2013-1-13,79.5,66.4,54.2,68.0,61.7,53.0,99,86,57,30.18,30.08,8,0,0,0.00
2013-1-14,78.7,70.0,58.4,68.0,64.3,58.0,99,83,64,30.20,30.11,7,1,0,0.01
2013-1-15,79.7,69.9,60.5,69.0,65.2,60.0,99,86,62,30.16,30.05,9,1,0,0.00
2013-1-16,79.8,69.0,61.3,68.0,64.1,61.0,98,85,58,30.10,30.00,5,0,0,0.00
2013-1-17,78.8,63.4,53.1,68.0,58.3,46.0,98,84,67,30.06,29.91,11,1,0,0.01
2013-1-18,62.9,55.7,39.3,55.0,48.8,35.0,89,78,70,30.32,30.18,18,4,0,0.00
2013-1-19,65.5,60.6,56.4,60.0,56.6,54.0,96,87,72,30.33,30.18,16,4,0,0.00
2013-1-20,67.6,59.8,51.9,58.0,54.5,50.0,97,84,58,30.21,30.08,9,1,0,0.00
2013-1-21,69.6,59.2,52.5,55.0,53.4,49.0,95,82,58,30.11,30.02,4,0,0,0.00
2013-1-22,61.9,52.0,42.5,49.0,41.9,35.0,92,71,37,30.29,30.08,14,1,0,0.00
2013-1-23,59.7,47.8,36.6,44.0,38.8,32.0,91,73,47,30.39,30.29,7,1,0,0.00
2013-1-24,72.5,53.3,41.1,53.0,46.2,40.0,95,80,48,30.32,30.20,7,1,0,0.00
2013-1-25,68.6,58.2,50.0,59.0,51.5,48.0,94,79,56,30.31,30.17,3,0,0,0.00